createdAt,value
2019-03-11T00:00:32.407Z,9.82
2019-03-11T00:05:29.533Z,9.91
2019-03-11T00:10:26.610Z,9.93
2019-03-11T00:15:24.640Z,10.01
2019-03-11T00:20:21.786Z,10.22
2019-03-11T00:25:18.743Z,10.05
2019-03-11T00:30:15.789Z,10.11
2019-03-11T00:35:12.811Z,10.22
2019-03-11T00:40:12.957Z,10.17
2019-03-11T00:45:14.487Z,10.15
2019-03-11T00:50:12.340Z,10.14
2019-03-11T00:55:11.413Z,10.19
2019-03-11T01:00:36.507Z,10.27
2019-03-11T01:05:33.469Z,10.18
2019-03-11T01:10:30.511Z,10.19
2019-03-11T01:15:31.119Z,10.10
2019-03-11T01:20:28.256Z,10.03
2019-03-11T01:25:25.238Z,10.12
2019-03-11T01:30:22.302Z,10.10
2019-03-11T01:35:19.508Z,10.03
2019-03-11T01:40:17.476Z,9.72
2019-03-11T01:45:16.330Z,9.46
2019-03-11T01:50:14.210Z,9.02
2019-03-11T01:55:12.580Z,8.98
2019-03-11T02:00:17.811Z,8.88
2019-03-11T02:05:14.861Z,8.65
2019-03-11T02:10:17.653Z,8.58
2019-03-11T02:15:16.992Z,8.22
2019-03-11T02:20:16.052Z,8.02
2019-03-11T02:25:13.721Z,7.98
2019-03-11T02:30:16.711Z,8.01
2019-03-11T02:35:25.082Z,8.25
2019-03-11T02:40:22.206Z,8.50
2019-03-11T02:45:19.335Z,8.73
2019-03-11T02:50:16.586Z,9.03
2019-03-11T02:55:13.687Z,9.20
2019-03-11T03:00:19.753Z,9.18
2019-03-11T03:05:21.122Z,9.25
2019-03-11T03:10:18.212Z,9.26
2019-03-11T03:15:15.443Z,9.35
2019-03-11T03:20:14.364Z,9.41
2019-03-11T03:25:13.315Z,9.46
2019-03-11T03:30:15.756Z,9.46
2019-03-11T03:35:12.973Z,9.38
2019-03-11T03:40:12.578Z,9.33
2019-03-11T03:45:28.237Z,9.32
2019-03-11T03:50:31.849Z,9.19
2019-03-11T03:55:28.818Z,9.01
2019-03-11T04:00:26.055Z,8.50
2019-03-11T04:05:23.263Z,8.16
2019-03-11T04:10:20.265Z,7.88
2019-03-11T04:15:19.152Z,7.62
2019-03-11T04:20:19.413Z,7.58
2019-03-11T04:25:17.620Z,7.53
2019-03-11T04:30:19.524Z,7.30
2019-03-11T04:35:16.672Z,6.84
2019-03-11T04:40:14.681Z,6.53
2019-03-11T04:45:13.604Z,6.18
2019-03-11T04:50:17.185Z,6.30
2019-03-11T04:55:15.543Z,6.07
2019-03-11T05:00:25.760Z,5.90
2019-03-11T05:05:23.905Z,5.75
2019-03-11T05:10:21.040Z,5.30
2019-03-11T05:15:18.109Z,5.37
2019-03-11T05:20:15.940Z,5.28
2019-03-11T05:25:15.097Z,5.21
2019-03-11T05:30:18.768Z,5.22
2019-03-11T05:35:15.832Z,5.11
2019-03-11T05:40:17.007Z,5.11
2019-03-11T05:45:17.044Z,5.21
2019-03-11T05:50:15.551Z,5.22
2019-03-11T05:55:12.963Z,5.11
2019-03-11T06:00:29.803Z,5.03
2019-03-11T06:05:26.956Z,4.99
2019-03-11T06:10:24.265Z,5.04
2019-03-11T06:15:21.336Z,5.26
2019-03-11T06:20:18.399Z,5.37
2019-03-11T06:25:16.106Z,5.48
2019-03-11T06:30:13.412Z,5.64
2019-03-11T06:35:12.704Z,5.61
2019-03-11T06:40:11.246Z,5.73
2019-03-11T06:45:12.781Z,5.53
2019-03-11T06:50:11.818Z,5.54
2019-03-11T06:55:10.450Z,5.62
2019-03-11T07:00:12.902Z,5.45
2019-03-11T07:05:20.650Z,5.39
2019-03-11T07:10:18.232Z,5.54
2019-03-11T07:20:37.998Z,5.78
2019-03-11T07:25:42.445Z,5.51
2019-03-11T07:30:39.919Z,5.76
2019-03-11T07:41:32.155Z,6.81
2019-03-11T07:46:29.214Z,7.24
2019-03-11T07:51:26.375Z,7.75
2019-03-11T07:56:27.355Z,7.23
2019-03-11T08:01:25.369Z,6.58
2019-03-11T08:06:26.329Z,5.82
2019-03-11T08:11:23.489Z,6.44
2019-03-11T08:16:20.766Z,6.58
2019-03-11T08:21:19.574Z,6.68
2019-03-11T08:31:53.195Z,7.15
2019-03-11T08:36:51.999Z,7.20
2019-03-11T08:47:33.815Z,7.12
2019-03-11T08:58:11.719Z,6.58
2019-03-11T09:03:12.940Z,6.90
2019-03-11T09:14:20.783Z,7.79
2019-03-11T09:19:38.257Z,8.63
2019-03-11T09:24:42.194Z,9.43
2019-03-11T09:29:42.550Z,9.92
2019-03-11T09:34:40.622Z,9.42
2019-03-11T09:39:37.752Z,9.61
2019-03-11T09:44:34.897Z,9.23
2019-03-11T09:49:34.740Z,8.75
2019-03-11T09:54:34.149Z,8.86
2019-03-11T09:59:34.464Z,8.67
2019-03-11T10:10:00.452Z,8.24
2019-03-11T10:15:01.879Z,7.90
2019-03-11T10:19:59.166Z,7.66
2019-03-11T10:24:59.548Z,7.46
2019-03-11T10:29:57.060Z,8.52
2019-03-11T10:34:56.533Z,8.93
2019-03-11T10:40:03.852Z,9.58
2019-03-11T10:44:59.357Z,9.94
2019-03-11T10:49:59.520Z,9.96
2019-03-11T10:55:01.104Z,9.13
2019-03-11T11:00:11.377Z,8.87
2019-03-11T11:05:11.734Z,9.78
2019-03-11T11:10:22.115Z,10.23
2019-03-11T11:15:33.260Z,9.83
2019-03-11T11:20:32.832Z,9.93
2019-03-11T11:25:32.948Z,10.08
2019-03-11T11:30:32.313Z,10.05
2019-03-11T11:35:29.757Z,9.65
2019-03-11T11:40:30.076Z,10.13
2019-03-11T11:45:32.887Z,9.95
2019-03-11T11:50:30.110Z,8.59
2019-03-11T12:00:59.507Z,8.81
2019-03-11T12:05:56.817Z,9.21
2019-03-11T12:10:54.174Z,9.29
2019-03-11T12:15:52.926Z,9.74
2019-03-11T12:20:50.085Z,9.38
2019-03-11T12:25:47.338Z,9.77
2019-03-11T12:30:46.532Z,9.50
2019-03-11T12:35:46.851Z,9.39
2019-03-11T12:40:45.841Z,9.52
2019-03-11T12:45:42.982Z,9.60
2019-03-11T12:50:44.088Z,9.72
2019-03-11T12:55:49.366Z,10.10
2019-03-11T13:00:47.239Z,10.13
2019-03-11T13:05:51.443Z,9.99
2019-03-11T13:10:51.524Z,9.88
2019-03-11T13:15:51.846Z,9.82
2019-03-11T13:20:48.979Z,9.60
2019-03-11T13:25:51.231Z,9.34
2019-03-11T13:30:56.474Z,9.21
2019-03-11T13:35:56.817Z,9.62
2019-03-11T13:41:14.377Z,10.13
2019-03-11T13:46:15.640Z,10.17
2019-03-11T13:51:14.247Z,10.54
2019-03-11T13:56:13.174Z,10.87
2019-03-11T14:01:12.537Z,11.01
2019-03-11T14:06:15.188Z,10.80
2019-03-11T14:11:12.418Z,10.35
2019-03-11T14:16:14.473Z,10.55
2019-03-11T14:21:25.266Z,10.28
2019-03-11T14:26:18.945Z,10.19
2019-03-11T14:31:16.300Z,10.01
2019-03-11T14:36:13.620Z,10.00
2019-03-11T14:41:10.890Z,9.97
2019-03-11T14:46:08.154Z,9.92
2019-03-11T14:51:05.580Z,9.67
2019-03-11T14:56:04.696Z,9.65
2019-03-11T15:01:05.118Z,9.49
2019-03-11T15:06:04.281Z,9.49
2019-03-11T15:11:01.459Z,9.48
2019-03-11T15:15:58.777Z,9.30
2019-03-11T15:20:57.072Z,9.37
2019-03-11T15:25:54.411Z,9.32
2019-03-11T15:30:51.532Z,9.13
2019-03-11T15:35:48.672Z,9.13
2019-03-11T15:40:46.719Z,8.91
2019-03-11T15:45:44.157Z,8.79
2019-03-11T15:50:44.263Z,8.62
2019-03-11T15:55:41.474Z,8.49
2019-03-11T16:00:38.541Z,8.33
2019-03-11T16:05:36.124Z,8.04
2019-03-11T16:10:33.457Z,7.89
2019-03-11T16:15:30.934Z,7.84
2019-03-11T16:20:28.094Z,7.66
2019-03-11T16:25:27.183Z,7.47
2019-03-11T16:30:27.751Z,7.44
2019-03-11T16:35:26.775Z,7.35
2019-03-11T16:40:23.864Z,7.22
2019-03-11T16:45:22.120Z,6.95
2019-03-11T16:50:26.521Z,6.61
2019-03-11T16:55:28.749Z,6.55
2019-03-11T17:00:28.292Z,6.51
2019-03-11T17:05:27.703Z,6.23
2019-03-11T17:10:24.818Z,6.26
2019-03-11T17:15:22.134Z,6.13
2019-03-11T17:20:19.379Z,6.09
2019-03-11T17:25:16.653Z,5.96
2019-03-11T17:30:23.178Z,5.92
2019-03-11T17:35:21.372Z,5.76
2019-03-11T17:40:20.292Z,5.65
2019-03-11T17:45:18.099Z,5.52
2019-03-11T17:50:23.262Z,5.33
2019-03-11T17:55:20.777Z,5.38
2019-03-11T18:00:32.593Z,5.08
2019-03-11T18:05:29.714Z,5.00
2019-03-11T18:10:26.821Z,4.93
2019-03-11T18:15:24.232Z,4.87
2019-03-11T18:20:21.679Z,4.95
2019-03-11T18:25:20.179Z,4.92
2019-03-11T18:30:20.632Z,5.04
2019-03-11T18:35:18.262Z,5.06
2019-03-11T18:40:17.690Z,5.05
2019-03-11T18:45:15.887Z,5.02
2019-03-11T18:50:24.916Z,5.05
2019-03-11T18:55:22.356Z,5.21
2019-03-11T19:00:21.225Z,5.04
2019-03-11T19:05:22.026Z,5.01
2019-03-11T19:10:19.581Z,5.17
2019-03-11T19:15:26.375Z,5.11
2019-03-11T19:20:24.733Z,5.26
2019-03-11T19:25:23.761Z,5.15
2019-03-11T19:30:27.598Z,5.33
2019-03-11T19:35:24.942Z,5.40
2019-03-11T19:40:25.440Z,5.43
2019-03-11T19:45:22.684Z,5.52
2019-03-11T19:50:20.241Z,5.52
2019-03-11T19:55:18.828Z,5.58
2019-03-11T20:00:24.029Z,5.39
2019-03-11T20:05:28.660Z,5.28
2019-03-11T20:10:26.176Z,5.23
2019-03-11T20:15:23.605Z,5.01
2019-03-11T20:20:20.914Z,4.71
2019-03-11T20:25:30.389Z,4.65
2019-03-11T20:30:27.681Z,4.75
2019-03-11T20:35:25.033Z,4.61
2019-03-11T20:40:22.450Z,4.63
2019-03-11T20:45:21.365Z,4.65
2019-03-11T20:50:18.788Z,4.59
2019-03-11T20:55:18.755Z,4.45
2019-03-11T21:00:21.691Z,4.62
2019-03-11T21:05:35.965Z,4.61
2019-03-11T21:10:33.151Z,4.69
2019-03-11T21:15:30.355Z,4.58
2019-03-11T21:20:27.475Z,4.35
2019-03-11T21:25:26.900Z,4.48
2019-03-11T21:30:25.155Z,4.35
2019-03-11T21:35:22.529Z,4.18
2019-03-11T21:40:23.932Z,4.10
2019-03-11T21:45:33.000Z,4.19
2019-03-11T21:50:25.654Z,4.03
2019-03-11T21:55:22.832Z,4.08
2019-03-11T22:00:33.546Z,3.94
2019-03-11T22:05:23.877Z,3.86
2019-03-11T22:10:20.988Z,4.01
2019-03-11T22:15:27.242Z,4.02
2019-03-11T22:20:24.334Z,4.07
2019-03-11T22:25:22.455Z,4.20
2019-03-11T22:30:23.332Z,4.24
2019-03-11T22:35:20.480Z,4.15
2019-03-11T22:40:18.707Z,4.28
2019-03-11T22:45:20.470Z,4.26
2019-03-11T22:50:18.207Z,4.34
2019-03-11T22:55:15.868Z,4.52
2019-03-11T23:00:32.660Z,4.37
2019-03-11T23:05:29.728Z,4.35
2019-03-11T23:10:27.272Z,4.23
2019-03-11T23:15:24.479Z,4.33
2019-03-11T23:20:21.803Z,4.51
2019-03-11T23:25:18.914Z,4.59
2019-03-11T23:30:18.545Z,4.63
2019-03-11T23:35:15.700Z,4.63
2019-03-11T23:40:12.855Z,4.59
2019-03-11T23:45:11.142Z,4.55
2019-03-11T23:50:14.538Z,4.69
2019-03-11T23:55:12.053Z,4.64
